Time;durP1;ratioP1;P1;durP2;ratioP2;P2;SDS_P1;SDS_P2;PMS_P1;PMS_P2;Temp;Humidity;BMP_temperature;BMP_pressure;BME280_temperature;BME280_humidity;BME280_pressure;Samples;Min_cycle;Max_cycle;Signal;HPM_P1;HPM_P2
2023/08/05 00:03:41;;;;;;;6.70;4.50;;;;;;;18.70;66.19;99952.08;125484;1308;128774;-68
2023/08/05 00:07:43;;;;;;;5.30;3.40;;;;;;;18.68;66.32;99950.80;125215;1307;115416;-67
2023/08/05 00:11:44;;;;;;;5.50;4.30;;;;;;;18.60;66.25;99956.02;125406;1302;114846;-67
2023/08/05 00:15:45;;;;;;;5.20;4.40;;;;;;;18.51;66.44;99957.93;124970;1310;114845;-68
2023/08/05 00:19:46;;;;;;;5.30;4.30;;;;;;;18.43;66.52;99954.13;124228;1311;114901;-68
2023/08/05 00:27:49;;;;;;;5.70;4.00;;;;;;;18.29;66.84;99956.03;125047;1310;116468;-69
2023/08/05 00:31:50;;;;;;;7.40;4.40;;;;;;;18.23;67.05;99952.02;125368;1306;115257;-69
2023/08/05 00:35:51;;;;;;;7.20;5.40;;;;;;;18.18;67.27;99943.59;125166;1305;114922;-68
2023/08/05 00:47:46;;;;;;;6.80;4.60;;;;;;;18.08;67.77;99939.23;124695;1331;115829;-68
2023/08/05 00:51:47;;;;;;;8.90;6.10;;;;;;;18.06;68.08;99942.98;124000;1319;114801;-70
2023/08/05 01:08:21;;;;;;;7.20;5.00;;;;;;;18.16;68.22;99914.35;128872;1275;127769;-68
2023/08/05 01:12:24;;;;;;;5.40;4.80;;;;;;;18.17;68.10;99916.61;127880;1286;115481;-69
2023/08/05 01:16:26;;;;;;;7.20;5.40;;;;;;;18.18;68.02;99915.20;123440;1304;5412407;-70
2023/08/05 01:20:27;;;;;;;5.40;4.60;;;;;;;18.21;68.10;99920.41;126200;1299;115056;-69
2023/08/05 01:28:48;;;;;;;7.10;4.60;;;;;;;18.22;68.39;99914.69;125642;1305;129762;-67
2023/08/05 01:32:30;;;;;;;11.80;5.50;;;;;;;18.21;68.36;99902.48;124889;1310;115304;-68
2023/08/05 01:44:58;;;;;;;7.90;4.50;;;;;;;18.21;68.37;99895.26;126252;1297;635434;-68
2023/08/05 01:53:01;;;;;;;;;;;;;;;;;;;;;
2023/08/05 01:57:05;;;;;;;9.00;4.60;;;;;;;18.19;68.51;99887.31;123711;1285;5491343;-69
2023/08/05 02:01:09;;;;;;;6.90;5.20;;;;;;;18.19;68.41;99880.64;126967;1290;114900;-68
2023/08/05 02:05:10;;;;;;;7.40;4.80;;;;;;;18.18;68.45;99887.75;125660;1308;115053;-70
2023/08/05 02:12:34;;;;;;;6.60;4.80;;;;;;;18.18;68.45;99875.48;129129;1269;122639;-72
2023/08/05 02:16:25;;;;;;;7.50;4.60;;;;;;;18.19;68.35;99881.38;129099;1274;115448;-70
2023/08/05 02:20:29;;;;;;;6.70;5.20;;;;;;;18.20;68.32;99875.11;128911;1292;114792;-70
2023/08/05 02:24:31;;;;;;;7.00;4.60;;;;;;;18.22;68.51;99887.77;128173;1281;114927;-71
2023/08/05 02:28:38;;;;;;;12.30;4.80;;;;;;;18.24;68.69;99870.23;126586;1305;114935;-71
2023/08/05 02:32:38;;;;;;;8.70;4.30;;;;;;;18.24;68.34;99857.39;125588;1323;129586;-70
2023/08/05 02:36:21;;;;;;;;;;;;;;;;;;;;;
2023/08/05 02:40:24;;;;;;;7.40;4.70;;;;;;;18.26;68.21;99860.55;125160;1311;114974;-72
2023/08/05 02:48:56;;;;;;;;;;;;;;;;;;;;;
2023/08/05 02:52:48;;;;;;;7.00;5.10;;;;;;;18.35;68.16;99851.21;127606;1284;129772;-71
2023/08/05 02:56:39;;;;;;;6.50;5.10;;;;;;;18.35;68.13;99845.93;127097;1295;115349;-71
2023/08/05 03:00:41;;;;;;;8.00;5.70;;;;;;;18.37;68.22;99843.08;122871;1290;5508519;-71
2023/08/05 03:04:43;;;;;;;7.30;5.00;;;;;;;18.36;68.36;99835.34;126042;1317;114950;-70
2023/08/05 03:13:12;;;;;;;8.30;6.10;;;;;;;18.40;68.53;99858.73;125851;1295;638536;-70
2023/08/05 03:17:09;;;;;;;13.00;6.50;;;;;;;18.39;68.42;99871.11;128472;1295;127949;-70
2023/08/05 03:21:24;;;;;;;8.10;5.60;;;;;;;18.40;68.44;99877.71;127637;1285;115420;-69
2023/08/05 03:25:07;;;;;;;7.90;5.90;;;;;;;18.41;68.52;99868.80;123353;1284;5446111;-69
2023/08/05 03:28:52;;;;;;;12.60;6.80;;;;;;;18.41;68.48;99883.02;126622;1293;114821;-68
2023/08/05 03:32:52;;;;;;;11.20;6.80;;;;;;;18.42;68.41;99883.55;126692;1311;114896;-69
2023/08/05 03:36:54;;;;;;;13.90;6.50;;;;;;;18.43;68.39;99880.52;125819;1316;127592;-70
2023/08/05 03:45:08;;;;;;;;;;;;;;;;;;;;;
2023/08/05 03:49:10;;;;;;;7.30;5.90;;;;;;;18.47;68.45;99866.20;127537;1285;130517;-69
2023/08/05 03:52:54;;;;;;;;;;;;;;;;;;;;;
2023/08/05 03:56:53;;;;;;;10.70;6.30;;;;;;;18.47;68.34;99855.77;123010;1295;5440138;-69
2023/08/05 04:00:59;;;;;;;8.00;5.20;;;;;;;18.48;68.34;99851.30;126642;1293;115414;-68
2023/08/05 04:04:58;;;;;;;8.00;6.10;;;;;;;18.49;68.32;99862.02;125724;1305;114929;-70
2023/08/05 04:08:41;;;;;;;6.60;4.90;;;;;;;18.51;68.39;99865.10;124150;1334;114927;-70
2023/08/05 04:12:41;;;;;;;;;;;;;;;;;;;;;
2023/08/05 04:17:15;;;;;;;7.00;5.30;;;;;;;18.58;68.31;99867.61;125699;1299;640967;-69
2023/08/05 04:21:17;;;;;;;10.20;6.10;;;;;;;18.58;68.64;99859.95;127683;1287;127851;-70
2023/08/05 04:25:21;;;;;;;8.40;5.60;;;;;;;18.60;68.75;99859.88;127028;1305;115424;-68
2023/08/05 04:29:22;;;;;;;;;;;;;;;;;;;;;
2023/08/05 04:37:31;;;;;;;9.40;6.60;;;;;;;18.58;68.91;99859.66;127145;1288;635901;-68
2023/08/05 04:45:27;;;;;;;14.60;7.60;;;;;;;18.52;69.18;99866.12;127966;1288;115266;-69
2023/08/05 04:49:30;;;;;;;9.70;7.60;;;;;;;18.50;69.43;99865.73;123066;1299;5445251;-67
2023/08/05 04:53:32;;;;;;;9.90;7.40;;;;;;;18.49;69.49;99866.21;125429;1301;114807;-67
2023/08/05 04:57:33;;;;;;;7.90;6.60;;;;;;;18.49;69.61;99870.38;124082;1334;115002;-69
2023/08/05 05:01:35;;;;;;;;;;;;;;;;;;;;;
2023/08/05 05:05:57;;;;;;;14.30;9.10;;;;;;;18.46;69.66;99859.57;126215;1291;639743;-68
2023/08/05 05:09:50;;;;;;;11.90;7.40;;;;;;;18.45;69.70;99870.37;128729;1281;128052;-70
2023/08/05 05:13:50;;;;;;;;;;;;;;;;;;;;;
2023/08/05 05:21:59;;;;;;;13.60;7.40;;;;;;;18.41;69.63;99883.63;128353;1279;115015;-68
2023/08/05 05:26:01;;;;;;;15.00;8.40;;;;;;;18.39;69.53;99892.77;126898;1309;114880;-69
2023/08/05 05:30:00;;;;;;;;;;;;;;;;;;;;;
2023/08/05 05:34:26;;;;;;;12.00;7.90;;;;;;;18.46;69.70;99869.77;126127;1307;636014;-68
2023/08/05 05:38:29;;;;;;;10.90;6.90;;;;;;;18.47;69.52;99859.17;128131;1300;128729;-68
2023/08/05 05:42:31;;;;;;;11.50;7.90;;;;;;;18.50;69.54;99865.53;126976;1290;114865;-68
2023/08/05 05:46:35;;;;;;;;;;;;;;;;;;;;;
2023/08/05 05:50:47;;;;;;;8.30;5.90;;;;;;;18.58;69.32;99891.45;126623;1292;114827;-70
2023/08/05 05:54:48;;;;;;;10.50;5.70;;;;;;;18.63;69.22;99894.06;125655;1305;115425;-70
2023/08/05 05:58:35;;;;;;;;;;;;;;;;;;;;;
2023/08/05 06:03:01;;;;;;;8.90;5.60;;;;;;;18.77;69.10;99887.05;127042;1289;636402;-68
2023/08/05 06:07:04;;;;;;;10.40;5.40;;;;;;;18.84;69.14;99886.44;129428;1271;127592;-69
2023/08/05 06:10:57;;;;;;;;;;;;;;;;;;;;;
2023/08/05 06:15:09;;;;;;;5.60;5.00;;;;;;;18.98;68.95;99881.73;123594;1283;5562199;-70
2023/08/05 06:19:09;;;;;;;7.30;4.80;;;;;;;19.04;68.63;99886.14;127082;1284;114903;-70
2023/08/05 06:23:09;;;;;;;5.20;4.70;;;;;;;19.07;68.48;99895.61;127131;1307;114852;-70
2023/08/05 06:27:03;;;;;;;;;;;;;;;;;;;;;
2023/08/05 06:30:57;;;;;;;;;;;;;;;;;;;;;
2023/08/05 06:39:13;;;;;;;12.10;4.30;;;;;;;19.25;67.75;99863.38;126626;1303;636428;-66
2023/08/05 06:43:17;;;;;;;7.40;4.10;;;;;;;19.32;67.60;99859.45;128736;1295;128519;-69
2023/08/05 06:47:05;;;;;;;6.00;3.50;;;;;;;19.38;67.24;99867.21;127903;1285;115186;-70
2023/08/05 06:51:08;;;;;;;11.50;3.80;;;;;;;19.42;67.13;99865.39;127638;1287;114849;-67
2023/08/05 06:55:15;;;;;;;;;;;;;;;;;;;;;
2023/08/05 06:59:09;;;;;;;7.10;3.60;;;;;;;19.44;67.34;99860.30;125648;1305;115032;-72
2023/08/05 07:03:11;;;;;;;7.70;4.20;;;;;;;19.42;67.56;99853.96;125143;1316;114983;-68
2023/08/05 07:06:54;;;;;;;;;;;;;;;;;;;;;
2023/08/05 07:11:12;;;;;;;5.00;4.00;;;;;;;19.49;68.06;99859.66;126518;1289;636029;-71
2023/08/05 07:15:15;;;;;;;7.00;4.60;;;;;;;19.54;68.10;99858.59;128732;1296;127546;-69
2023/08/05 07:19:16;;;;;;;;;;;;;;;;;;;;;
2023/08/05 07:23:20;;;;;;;7.10;3.70;;;;;;;19.62;67.85;99851.02;122041;1294;5532935;-69
2023/08/05 07:27:21;;;;;;;4.00;3.50;;;;;;;19.69;68.23;99852.14;125199;1326;114925;-68
2023/08/05 07:31:16;;;;;;;4.10;3.50;;;;;;;19.77;68.59;99850.31;124465;1318;114959;-70
2023/08/05 07:39:34;;;;;;;;;;;;;;;;;;;;;
2023/08/05 07:43:38;;;;;;;8.50;4.50;;;;;;;19.98;68.66;99853.80;127770;1284;127811;-69
2023/08/05 07:47:40;;;;;;;;;;;;;;;;;;;;;
2023/08/05 07:55:45;;;;;;;6.60;4.40;;;;;;;20.23;69.31;99843.45;126186;1315;114889;-69
2023/08/05 07:59:46;;;;;;;9.80;5.60;;;;;;;20.28;69.32;99837.48;125685;1322;114798;-69
2023/08/05 08:03:29;;;;;;;6.70;6.00;;;;;;;20.29;69.58;99830.44;124518;1313;115219;-68
2023/08/05 08:07:30;;;;;;;9.60;6.10;;;;;;;20.25;69.55;99820.60;124415;1311;129950;-68
2023/08/05 08:15:34;;;;;;;;;;;;;;;;;;;;;
2023/08/05 08:19:23;;;;;;;;;;;;;;;;;;;;;
2023/08/05 08:23:27;;;;;;;13.90;6.80;;;;;;;20.40;70.60;99813.13;127523;1287;116829;-69
2023/08/05 08:27:29;;;;;;;9.70;7.00;;;;;;;20.41;70.51;99802.63;122336;1302;5427788;-69
2023/08/05 08:31:29;;;;;;;8.90;7.50;;;;;;;20.41;70.48;99792.67;124034;1318;115014;-69
2023/08/05 08:39:41;;;;;;;11.50;7.40;;;;;;;20.80;70.88;99783.80;126653;1303;636100;-67
2023/08/05 08:43:37;;;;;;;12.00;7.20;;;;;;;21.01;70.37;99783.22;128865;1278;127617;-70
2023/08/05 08:47:39;;;;;;;8.10;6.40;;;;;;;21.18;69.88;99775.39;128521;1272;114835;-68
2023/08/05 08:51:43;;;;;;;;;;;;;;;;;;;;;
2023/08/05 08:55:45;;;;;;;7.90;5.70;;;;;;;21.80;69.76;99770.98;125513;1307;114987;-70
2023/08/05 09:04:12;;;;;;;6.00;5.40;;;;;;;22.30;68.12;99771.67;125849;1297;636160;-70
2023/08/05 09:08:13;;;;;;;8.30;5.10;;;;;;;22.34;67.32;99773.52;128899;1274;127971;-70
2023/08/05 09:12:16;;;;;;;6.90;5.00;;;;;;;22.35;66.85;99780.11;128356;1275;115313;-69
2023/08/05 09:16:00;;;;;;;13.20;4.70;;;;;;;22.24;66.95;99778.34;123729;1283;5440069;-69
2023/08/05 09:28:27;;;;;;;5.90;4.90;;;;;;;21.94;66.17;99794.02;126415;1296;635259;-70
2023/08/05 09:32:39;;;;;;;7.30;5.30;;;;;;;21.78;65.93;99797.63;127934;1291;128285;-70
2023/08/05 09:36:45;;;;;;;6.20;5.20;;;;;;;21.63;65.95;99786.90;126976;1302;115196;-68
2023/08/05 09:40:59;;;;;;;9.00;5.90;;;;;;;21.54;65.92;99781.29;122434;1314;5448185;-68
2023/08/05 09:49:00;;;;;;;5.70;5.00;;;;;;;21.40;65.88;99811.80;124708;1324;114954;-68
2023/08/05 09:57:27;;;;;;;8.70;5.90;;;;;;;21.24;66.18;99811.26;125575;1300;635657;-68
2023/08/05 10:01:29;;;;;;;10.30;6.90;;;;;;;21.16;66.45;99814.13;128475;1273;129312;-70
2023/08/05 10:05:34;;;;;;;9.50;6.80;;;;;;;21.10;66.77;99812.30;127997;1283;115391;-69
2023/08/05 10:09:33;;;;;;;10.10;7.60;;;;;;;21.05;67.01;99807.02;124257;1280;5418369;-69
2023/08/05 10:14:14;;;;;;;14.50;8.60;;;;;;;21.01;67.04;99810.76;126220;1289;115046;-71
2023/08/05 10:17:51;;;;;;;11.30;7.30;;;;;;;20.92;67.14;99807.75;125674;1303;114986;-69
2023/08/05 10:21:52;;;;;;;8.20;7.10;;;;;;;20.85;67.22;99801.26;125085;1306;114971;-70
2023/08/05 10:25:34;;;;;;;;;;;;;;;20.79;67.41;99800.00;124569;1312;130193;-70
2023/08/05 10:29:15;;;;;;;;;;;;;;;;;;;;;
2023/08/05 10:37:55;;;;;;;7.90;7.10;;;;;;;20.76;67.69;99785.38;126082;1299;635784;-69
2023/08/05 10:41:58;;;;;;;12.20;7.10;;;;;;;20.78;67.85;99791.20;127450;1289;129180;-70
2023/08/05 10:46:05;;;;;;;12.00;7.70;;;;;;;20.81;68.08;99798.53;125950;1301;115491;-71
2023/08/05 10:50:06;;;;;;;15.10;8.70;;;;;;;20.79;67.94;99808.67;120506;1315;5447277;-72
2023/08/05 10:58:31;;;;;;;12.90;9.30;;;;;;;20.78;68.23;99799.41;126321;1291;636355;-71
2023/08/05 11:02:26;;;;;;;;;;;;;;;;;;;;;
2023/08/05 11:06:28;;;;;;;;;;;;;;;;;;;;;
2023/08/05 11:10:33;;;;;;;;;;;;;;;;;;;;;
2023/08/05 11:14:33;;;;;;;;;;;;;;;;;;;;;
2023/08/05 11:27:00;;;;;;;12.70;10.80;;;;;;;20.51;70.21;99777.69;126529;1294;635685;-71
2023/08/05 11:31:15;;;;;;;17.80;11.00;;;;;;;20.48;70.71;99775.66;128412;1276;131233;-70
2023/08/05 11:34:53;;;;;;;14.80;11.70;;;;;;;20.47;70.90;99776.82;127793;1283;115112;-68
2023/08/05 11:38:50;;;;;;;;;;;;;;;;;;;;;
2023/08/05 11:42:53;;;;;;;16.30;11.90;;;;;;;20.42;71.34;99776.63;125895;1315;115062;-72
2023/08/05 11:47:06;;;;;;;26.80;19.80;;;;;;;20.36;71.50;99775.23;125110;1327;114987;-71
2023/08/05 11:55:39;;;;;;;26.20;21.50;;;;;;;20.25;72.05;99771.04;125932;1300;636248;-70
2023/08/05 11:59:24;;;;;;;21.70;16.20;;;;;;;20.17;72.26;99780.50;129008;1292;127638;-69
2023/08/05 12:03:14;;;;;;;19.40;14.20;;;;;;;20.13;72.70;99782.55;128449;1273;114795;-70
2023/08/05 12:07:42;;;;;;;22.10;13.80;;;;;;;20.08;72.89;99775.83;127193;1289;114893;-70
2023/08/05 12:11:19;;;;;;;14.70;12.80;;;;;;;20.02;73.08;99781.46;122206;1295;114970;-70
2023/08/05 12:15:45;;;;;;;15.10;13.10;;;;;;;20.00;73.47;99782.56;125290;1310;114977;-66
2023/08/05 12:23:44;;;;;;;40.30;27.30;;;;;;;19.99;74.23;99767.23;126335;1298;636495;-69
2023/08/05 12:27:45;;;;;;;;;;;;;;;;;;;;;
2023/08/05 12:31:55;;;;;;;24.20;17.70;;;;;;;19.88;75.20;99768.46;126490;1315;115451;-71
2023/08/05 12:35:56;;;;;;;19.10;16.70;;;;;;;19.84;75.46;99773.35;121950;1299;5469779;-74
2023/08/05 12:39:58;;;;;;;19.50;17.00;;;;;;;19.76;75.67;99760.40;125526;1307;114905;-77
2023/08/05 12:48:44;;;;;;;21.40;19.20;;;;;;;19.64;76.50;99740.90;126030;1294;649792;-74
2023/08/05 12:52:40;;;;;;;;;;;;;;;;;;;;;
2023/08/05 12:56:22;;;;;;;;;;;;;;;19.51;77.16;99749.90;126370;1299;114930;-73
2023/08/05 13:00:29;;;;;;;20.70;18.60;;;;;;;19.42;77.43;99739.37;122514;1302;5474292;-74
2023/08/05 13:04:20;;;;;;;21.10;18.70;;;;;;;19.36;77.93;99735.16;125669;1315;114986;-69
2023/08/05 13:08:21;;;;;;;21.80;19.50;;;;;;;19.34;78.24;99726.23;125051;1322;114926;-69
2023/08/05 13:12:21;;;;;;;;;;;;;;;;;;;;;
2023/08/05 13:16:44;;;;;;;25.20;21.40;;;;;;;19.25;78.57;99729.14;126608;1295;635802;-68
2023/08/05 13:20:47;;;;;;;22.70;19.60;;;;;;;19.16;78.91;99713.37;127930;1283;127687;-74
2023/08/05 13:28:56;;;;;;;26.50;20.80;;;;;;;19.05;79.47;99706.10;121836;1304;5422571;-70
2023/08/05 13:37:22;;;;;;;20.00;16.80;;;;;;;18.97;79.89;99710.85;126340;1297;636258;-73
2023/08/05 13:41:25;;;;;;;17.40;15.60;;;;;;;18.88;80.28;99700.61;128330;1280;128937;-74
2023/08/05 13:45:28;;;;;;;18.80;15.80;;;;;;;18.81;80.26;99694.56;127645;1281;114851;-75
2023/08/05 13:49:30;;;;;;;16.10;14.40;;;;;;;18.73;80.41;99701.45;122978;1290;5421626;-77
2023/08/05 13:53:23;;;;;;;;;;;;;;;;;;;;;
2023/08/05 14:01:47;;;;;;;14.10;12.60;;;;;;;18.45;80.77;99697.72;126104;1298;638580;-73
2023/08/05 14:05:51;;;;;;;13.00;11.70;;;;;;;18.35;80.99;99703.29;128316;1288;127750;-74
2023/08/05 14:14:01;;;;;;;13.90;12.50;;;;;;;18.25;81.50;99686.66;122625;1295;5505586;-67
2023/08/05 14:18:02;;;;;;;15.60;12.80;;;;;;;18.21;81.72;99675.84;125283;1319;115256;-75
2023/08/05 14:30:28;;;;;;;17.50;12.90;;;;;;;18.10;82.30;99680.12;128358;1278;129126;-73
2023/08/05 14:38:26;;;;;;;14.90;13.40;;;;;;;18.05;82.68;99690.42;123283;1283;5428976;-73
2023/08/05 14:42:26;;;;;;;15.70;13.80;;;;;;;18.04;82.92;99689.83;125891;1302;114842;-71
2023/08/05 14:46:28;;;;;;;14.90;13.40;;;;;;;18.05;83.12;99683.98;125551;1315;114921;-73
2023/08/05 14:50:29;;;;;;;15.20;13.50;;;;;;;18.04;83.39;99670.54;125127;1310;114954;-73
2023/08/05 14:54:23;;;;;;;17.20;14.20;;;;;;;18.02;83.61;99671.43;124255;1324;128367;-70
2023/08/05 15:03:00;;;;;;;;;;;;;;;;;;;;;
2023/08/05 15:06:55;;;;;;;16.90;14.00;;;;;;;17.97;84.03;99675.81;127669;1296;129263;-71
2023/08/05 15:11:02;;;;;;;15.90;14.30;;;;;;;17.96;84.31;99675.70;126597;1295;115281;-68
2023/08/05 15:15:06;;;;;;;18.90;14.30;;;;;;;17.96;84.47;99672.12;122589;1302;5393796;-68
2023/08/05 15:19:07;;;;;;;14.30;12.90;;;;;;;17.96;84.75;99673.94;125652;1310;114891;-70
2023/08/05 15:23:09;;;;;;;17.70;14.20;;;;;;;17.94;84.94;99673.05;124877;1320;114940;-66
2023/08/05 15:31:33;;;;;;;15.10;13.50;;;;;;;17.94;85.35;99674.27;126365;1295;635127;-72
2023/08/05 15:39:38;;;;;;;13.10;11.80;;;;;;;17.87;85.61;99671.09;127974;1284;115343;-71
2023/08/05 15:43:45;;;;;;;13.00;11.60;;;;;;;17.85;85.88;99669.70;123586;1287;5508119;-73
2023/08/05 15:47:35;;;;;;;;;;;;;;;;;;;;;
2023/08/05 15:51:36;;;;;;;;;;;;;;;;;;;;;
2023/08/05 15:59:44;;;;;;;;;;;;;;;;;;;;;
2023/08/05 16:03:48;;;;;;;8.00;6.20;;;;;;;17.44;87.54;99634.27;129336;1273;128644;-70
2023/08/05 16:07:51;;;;;;;9.50;6.20;;;;;;;17.32;87.74;99616.73;128329;1280;115249;-70
2023/08/05 16:12:04;;;;;;;6.60;5.40;;;;;;;17.21;87.68;99599.48;124594;1302;5453194;-73
2023/08/05 16:24:32;;;;;;;9.10;6.70;;;;;;;16.90;90.14;99581.43;126390;1300;636797;-66
2023/08/05 16:28:35;;;;;;;7.70;6.40;;;;;;;16.78;90.52;99532.91;128227;1279;128787;-66
2023/08/05 16:32:26;;;;;;;7.00;6.30;;;;;;;16.75;90.42;99517.33;127493;1288;115189;-67
2023/08/05 16:36:29;;;;;;;7.20;6.50;;;;;;;16.73;90.47;99555.34;122898;1300;5475845;-67
2023/08/05 16:40:31;;;;;;;7.30;6.00;;;;;;;16.66;90.72;99572.72;125829;1301;114956;-67
2023/08/05 16:44:31;;;;;;;5.80;5.30;;;;;;;16.59;90.49;99598.74;124458;1319;114952;-67
2023/08/05 16:52:58;;;;;;;10.50;6.80;;;;;;;16.55;90.61;99675.48;126243;1298;636208;-68
2023/08/05 16:57:01;;;;;;;7.10;6.10;;;;;;;16.55;90.77;99719.05;129011;1275;129228;-67
2023/08/05 17:01:03;;;;;;;17.70;6.80;;;;;;;16.58;91.07;99720.84;127896;1284;115268;-67
2023/08/05 17:05:08;;;;;;;;;;;;;;;;;;;;;
2023/08/05 17:09:10;;;;;;;8.00;5.40;;;;;;;16.59;91.27;99705.65;126319;1294;114945;-68
2023/08/05 17:29:25;;;;;;;11.30;5.90;;;;;;;16.25;91.72;99678.70;123372;1289;5461826;-66
2023/08/05 17:33:32;;;;;;;6.10;5.40;;;;;;;16.20;91.88;99709.27;127087;1288;115351;-67
2023/08/05 17:37:24;;;;;;;10.70;7.20;;;;;;;16.14;91.89;99723.20;126352;1315;114851;-67
2023/08/05 17:41:23;;;;;;;12.80;5.70;;;;;;;16.10;92.15;99711.50;125866;1302;114908;-67
2023/08/05 17:45:04;;;;;;;;;;;;;;;;;;;;;
2023/08/05 17:57:33;;;;;;;5.50;4.90;;;;;;;15.91;94.24;99666.58;128642;1278;129031;-67
2023/08/05 18:01:29;;;;;;;7.10;4.80;;;;;;;15.89;94.53;99666.21;128015;1299;114900;-65
2023/08/05 18:05:31;;;;;;;16.70;5.60;;;;;;;15.85;95.23;99629.21;124089;1281;5422480;-67
2023/08/05 18:09:32;;;;;;;21.40;5.90;;;;;;;15.79;96.80;99571.32;126006;1319;114922;-67
2023/08/05 18:13:24;;;;;;;6.40;5.50;;;;;;;15.70;98.52;99517.14;124843;1319;116561;-68
2023/08/05 18:17:26;;;;;;;6.10;5.40;;;;;;;15.64;98.44;99477.38;124386;1316;114982;-67
2023/08/05 18:25:54;;;;;;;6.20;5.60;;;;;;;15.59;98.22;99545.06;125400;1303;636012;-70
2023/08/05 18:29:55;;;;;;;6.20;4.50;;;;;;;15.57;98.67;99540.61;128059;1280;126891;-66
2023/08/05 18:33:59;;;;;;;6.70;5.20;;;;;;;15.55;98.89;99545.97;126964;1311;115228;-76
2023/08/05 18:38:08;;;;;;;5.80;5.30;;;;;;;15.55;98.92;99537.36;122739;1292;5445467;-69
2023/08/05 18:42:09;;;;;;;9.70;5.30;;;;;;;15.52;99.68;99529.84;126071;1318;114875;-66
2023/08/05 18:46:11;;;;;;;6.10;5.40;;;;;;;15.51;99.75;99541.99;125420;1318;114898;-69
2023/08/05 18:50:12;;;;;;;5.20;4.80;;;;;;;15.50;99.86;99534.52;125098;1310;129720;-69
2023/08/05 18:54:06;;;;;;;6.20;5.20;;;;;;;15.50;100.00;99535.00;123979;1326;114986;-65
2023/08/05 19:06:36;;;;;;;8.10;5.90;;;;;;;15.50;100.00;99556.95;128278;1276;127582;-64
2023/08/05 19:10:32;;;;;;;6.30;5.70;;;;;;;15.51;100.00;99572.38;127570;1288;115317;-67
2023/08/05 19:17:49;;;;;;;8.00;7.20;;;;;;;15.52;100.00;99582.73;125893;1298;114977;-66
2023/08/05 19:22:07;;;;;;;8.10;7.40;;;;;;;15.53;100.00;99581.41;125812;1304;114946;-64
2023/08/05 19:26:09;;;;;;;10.70;8.00;;;;;;;15.56;100.00;99582.58;125249;1326;114902;-68
2023/08/05 19:34:06;;;;;;;;;;;;;;;;;;;;;
2023/08/05 19:38:01;;;;;;;12.40;8.60;;;;;;;15.60;100.00;99558.69;128843;1274;128987;-70
2023/08/05 19:42:04;;;;;;;9.60;8.70;;;;;;;15.60;100.00;99554.91;128950;1274;114797;-66
2023/08/05 19:45:47;;;;;;;9.90;8.80;;;;;;;15.59;100.00;99557.91;128694;1278;114861;-68
2023/08/05 19:49:37;;;;;;;11.60;9.90;;;;;;;15.59;100.00;99553.54;124381;1282;114936;-72
2023/08/05 19:53:20;;;;;;;11.90;10.70;;;;;;;15.59;100.00;99535.06;127859;1281;114840;-73
2023/08/05 19:57:13;;;;;;;12.10;8.90;;;;;;;15.58;100.00;99520.87;127143;1293;116605;-67
2023/08/05 20:01:06;;;;;;;10.70;8.50;;;;;;;15.57;100.00;99521.70;126007;1297;128167;-63
2023/08/05 20:05:07;;;;;;;12.20;8.70;;;;;;;15.56;100.00;99514.98;125333;1306;116475;-67
2023/08/05 20:13:39;;;;;;;11.20;9.10;;;;;;;15.57;100.00;99488.39;126289;1305;639604;-68
2023/08/05 20:17:42;;;;;;;12.10;9.50;;;;;;;15.55;100.00;99490.49;128071;1300;128274;-70
2023/08/05 20:21:45;;;;;;;11.20;9.90;;;;;;;15.55;100.00;99499.92;127267;1290;116385;-64
2023/08/05 20:25:47;;;;;;;11.40;10.30;;;;;;;15.55;100.00;99509.25;121859;1302;5434238;-69
2023/08/05 20:29:47;;;;;;;10.60;8.60;;;;;;;15.55;100.00;99506.58;125114;1310;114951;-65
2023/08/05 20:38:03;;;;;;;;;;;;;;;;;;;;;
2023/08/05 20:42:08;;;;;;;11.00;9.80;;;;;;;15.56;100.00;99484.19;128917;1275;128851;-63
2023/08/05 20:46:11;;;;;;;10.80;9.20;;;;;;;15.57;100.00;99459.23;127963;1285;115767;-64
2023/08/05 20:50:15;;;;;;;13.30;10.70;;;;;;;15.58;100.00;99450.50;123891;1286;5432170;-64
2023/08/05 20:54:16;;;;;;;12.60;9.60;;;;;;;15.57;100.00;99450.91;127066;1287;114913;-64
2023/08/05 21:06:19;;;;;;;12.90;10.40;;;;;;;15.55;100.00;99451.30;125657;1306;116543;-68
2023/08/05 21:14:43;;;;;;;13.80;10.80;;;;;;;15.54;100.00;99438.42;126649;1294;635781;-67
2023/08/05 21:18:37;;;;;;;;;;;;;;;;;;;;;
2023/08/05 21:22:42;;;;;;;12.20;10.80;;;;;;;15.46;100.00;99447.20;128238;1279;115015;-67
2023/08/05 21:26:42;;;;;;;;;;;;;;;;;;;;;
2023/08/05 21:30:42;;;;;;;;;;;;;;;;;;;;;
2023/08/05 21:43:05;;;;;;;13.20;11.20;;;;;;;15.38;100.00;99433.07;126086;1308;638572;-69
2023/08/05 21:46:57;;;;;;;13.60;10.90;;;;;;;15.35;100.00;99417.36;128564;1273;128277;-72
2023/08/05 21:50:50;;;;;;;16.40;10.80;;;;;;;15.32;100.00;99412.88;127973;1283;116020;-67
2023/08/05 21:58:54;;;;;;;10.40;9.40;;;;;;;15.27;100.00;99399.96;126817;1303;116496;-69
2023/08/05 22:02:55;;;;;;;10.20;9.20;;;;;;;15.28;100.00;99398.52;125583;1307;114960;-65
2023/08/05 22:11:08;;;;;;;;;;;;;;;;;;;;;
2023/08/05 22:19:15;;;;;;;11.60;8.10;;;;;;;15.24;100.00;99368.98;127194;1289;115294;-66
2023/08/05 22:31:37;;;;;;;11.10;8.40;;;;;;;15.18;100.00;99331.86;125658;1298;114829;-67
2023/08/05 22:35:37;;;;;;;12.80;8.70;;;;;;;15.20;100.00;99324.56;125036;1328;114913;-66
2023/08/05 22:43:54;;;;;;;10.00;7.80;;;;;;;15.24;100.00;99292.29;126592;1295;636667;-68
2023/08/05 22:51:59;;;;;;;9.70;7.90;;;;;;;15.19;100.00;99277.80;127360;1287;115262;-72
2023/08/05 22:56:03;;;;;;;9.30;8.00;;;;;;;15.15;100.00;99272.79;123292;1300;5443306;-68
2023/08/05 23:00:04;;;;;;;8.20;7.40;;;;;;;15.12;100.00;99268.01;126228;1298;115171;-67
2023/08/05 23:12:38;;;;;;;7.20;6.50;;;;;;;15.11;100.00;99253.70;125929;1299;635962;-71
2023/08/05 23:28:49;;;;;;;6.00;4.70;;;;;;;15.06;100.00;99204.67;125985;1317;636880;-72
2023/08/05 23:32:52;;;;;;;5.30;4.80;;;;;;;15.03;100.00;99216.45;128855;1269;127858;-69
2023/08/05 23:36:57;;;;;;;;;;;;;;;;;;;;;
2023/08/05 23:41:13;;;;;;;4.60;4.20;;;;;;;15.01;100.00;99197.69;122855;1289;5860330;-68
2023/08/05 23:45:00;;;;;;;4.70;4.10;;;;;;;15.01;100.00;99193.02;127460;1290;114925;-68
2023/08/05 23:52:59;;;;;;;3.90;3.60;;;;;;;15.00;100.00;99182.17;125798;1296;129711;-72
